createdAt,value
2019-05-30T00:00:31.704Z,134.72
2019-05-30T00:05:31.665Z,130.63
2019-05-30T00:10:31.672Z,137.13
2019-05-30T00:15:31.669Z,136.91
2019-05-30T00:20:31.688Z,136.24
2019-05-30T00:25:31.702Z,134.29
2019-05-30T00:30:31.677Z,129.83
2019-05-30T00:35:31.659Z,120.87
2019-05-30T00:40:31.657Z,121.83
2019-05-30T00:45:31.629Z,117.9
2019-05-30T00:50:31.610Z,117.9
2019-05-30T00:55:31.708Z,116.03
2019-05-30T01:00:45.010Z,111.56
2019-05-30T01:05:31.681Z,109.74
2019-05-30T01:10:31.654Z,103.46
2019-05-30T01:15:31.601Z,108.05
2019-05-30T01:20:31.652Z,110.17
2019-05-30T01:25:31.653Z,111.64
2019-05-30T01:30:31.584Z,107.15
2019-05-30T01:35:31.609Z,111.86
2019-05-30T01:40:31.629Z,116.35
2019-05-30T01:45:31.647Z,117.08
2019-05-30T01:50:31.555Z,112.16
2019-05-30T01:55:31.579Z,111.12
2019-05-30T02:00:31.584Z,109.96
2019-05-30T02:05:31.581Z,92.15
2019-05-30T02:10:31.572Z,94.75
2019-05-30T02:15:31.572Z,94.35
2019-05-30T02:20:31.591Z,102.64
2019-05-30T02:25:31.567Z,102.39
2019-05-30T02:30:31.542Z,104.95
2019-05-30T02:35:31.564Z,107.09
2019-05-30T02:40:31.532Z,96.29
2019-05-30T02:45:31.559Z,96.96
2019-05-30T02:50:31.574Z,101.65
2019-05-30T02:55:31.537Z,111.79
2019-05-30T03:00:31.515Z,130.74
2019-05-30T03:05:31.546Z,137.36
2019-05-30T03:10:31.552Z,154.95
2019-05-30T03:15:31.537Z,160.73
2019-05-30T03:20:31.522Z,183.94
2019-05-30T03:25:31.524Z,186.39
2019-05-30T03:30:32.177Z,201.01
2019-05-30T03:35:43.101Z,203.24
2019-05-30T03:40:33.908Z,194.05
2019-05-30T03:45:31.532Z,115.87
2019-05-30T03:50:31.513Z,108.75
2019-05-30T03:55:31.464Z,126.41
2019-05-30T04:00:31.479Z,131.66
2019-05-30T04:05:31.467Z,123.26
2019-05-30T04:10:31.484Z,142.96
2019-05-30T04:15:31.490Z,116.19
2019-05-30T04:20:31.477Z,137.58
2019-05-30T04:25:31.505Z,138.15
2019-05-30T04:30:31.450Z,133.43
2019-05-30T04:35:31.446Z,123.44
2019-05-30T04:40:31.452Z,144.81
2019-05-30T04:45:31.427Z,135.91
2019-05-30T04:50:31.414Z,137.92
2019-05-30T04:55:31.449Z,157.27
2019-05-30T05:00:31.454Z,154.1
2019-05-30T05:05:31.416Z,156.4
2019-05-30T05:10:31.462Z,169.65
2019-05-30T05:15:31.419Z,179.81
2019-05-30T05:20:31.443Z,181.56
2019-05-30T05:25:31.411Z,182.55
2019-05-30T05:30:32.521Z,173.86
2019-05-30T05:35:31.437Z,192.58
2019-05-30T05:40:31.417Z,174.4
2019-05-30T05:45:31.421Z,196.59
2019-05-30T05:50:35.604Z,190.03
2019-05-30T05:55:31.388Z,188.09
2019-05-30T06:00:32.158Z,215.28
2019-05-30T06:05:32.151Z,225.1
2019-05-30T06:10:32.131Z,276.27
2019-05-30T06:15:32.167Z,348.14
2019-05-30T06:20:32.163Z,314.07
2019-05-30T06:25:34.928Z,244.59
2019-05-30T06:30:32.131Z,226.8
2019-05-30T06:35:32.171Z,219.28
2019-05-30T06:40:34.168Z,208.89
2019-05-30T06:45:32.491Z,248.82
2019-05-30T06:50:33.027Z,248.64
2019-05-30T06:55:33.442Z,250.33
2019-05-30T07:00:32.887Z,273.53
2019-05-30T07:05:35.492Z,225.72
2019-05-30T07:10:33.241Z,260.39
2019-05-30T07:15:34.356Z,184.55
2019-05-30T07:20:32.086Z,179.43
2019-05-30T07:25:32.106Z,186.81
2019-05-30T07:30:32.145Z,196.59
2019-05-30T07:35:32.142Z,185.14
2019-05-30T07:40:32.839Z,169.99
2019-05-30T07:45:33.210Z,176.05
2019-05-30T07:50:32.659Z,170.51
2019-05-30T07:55:33.281Z,190.58
2019-05-30T08:00:33.618Z,193.82
2019-05-30T08:05:32.726Z,186.71
2019-05-30T08:10:32.122Z,193.71
2019-05-30T08:15:33.557Z,186.92
2019-05-30T08:20:32.080Z,200.28
2019-05-30T08:25:32.249Z,183.74
2019-05-30T08:30:32.435Z,201.5
2019-05-30T08:35:49.740Z,228.05
2019-05-30T08:40:33.442Z,211.29
2019-05-30T08:45:32.053Z,231.89
2019-05-30T08:50:32.429Z,238.76
2019-05-30T08:55:32.462Z,244.41
2019-05-30T09:00:32.035Z,272.63
2019-05-30T09:05:32.068Z,301.19
2019-05-30T09:10:32.229Z,244.41
2019-05-30T09:15:32.018Z,238.24
2019-05-30T09:20:33.051Z,240.67
2019-05-30T09:25:32.036Z,212.79
2019-05-30T09:30:32.003Z,261.42
2019-05-30T09:35:32.029Z,253.98
2019-05-30T09:40:31.986Z,235.53
2019-05-30T09:45:31.973Z,236.71
2019-05-30T09:50:31.999Z,269.52
2019-05-30T09:55:32.049Z,261.83
2019-05-30T10:00:32.044Z,255.55
2019-05-30T10:05:31.949Z,267.77
2019-05-30T10:10:31.995Z,267.33
2019-05-30T10:15:31.997Z,285.58
2019-05-30T10:20:31.981Z,219.42
2019-05-30T10:25:31.983Z,228.05
2019-05-30T10:30:31.953Z,260.59
2019-05-30T10:35:32.393Z,229.96
2019-05-30T10:40:50.328Z,254.18
2019-05-30T10:45:41.544Z,244.59
2019-05-30T10:50:41.539Z,243.51
2019-05-30T10:55:41.496Z,221.04
2019-05-30T11:00:41.522Z,210.62
2019-05-30T11:05:41.458Z,261.83
2019-05-30T11:10:41.471Z,269.95
2019-05-30T11:15:41.655Z,273.53
2019-05-30T11:20:41.468Z,335.42
2019-05-30T11:25:41.451Z,312.88
2019-05-30T11:30:41.443Z,322.65
2019-05-30T11:35:41.436Z,295.54
2019-05-30T11:40:41.502Z,305.65
2019-05-30T11:45:41.464Z,289.58
2019-05-30T11:50:41.443Z,308.79
2019-05-30T11:55:41.467Z,247.52
2019-05-30T12:00:41.422Z,279.07
2019-05-30T12:05:41.421Z,229
2019-05-30T12:10:41.412Z,212.1
2019-05-30T12:15:41.449Z,237.9
2019-05-30T12:20:43.287Z,221.78
2019-05-30T12:25:41.462Z,219.86
2019-05-30T12:31:01.665Z,264.77
2019-05-30T12:35:41.449Z,237.73
2019-05-30T12:40:41.416Z,288.07
2019-05-30T12:45:41.403Z,310.53
2019-05-30T12:50:41.371Z,309.95
2019-05-30T12:55:41.406Z,318.61
2019-05-30T13:00:41.426Z,308.21
2019-05-30T13:05:41.417Z,268.64
2019-05-30T13:10:41.407Z,306.5
2019-05-30T13:15:41.392Z,338.86
2019-05-30T13:20:41.478Z,361.86
2019-05-30T13:25:41.367Z,386.77
2019-05-30T13:30:41.402Z,356.39
2019-05-30T13:35:41.378Z,348.5
2019-05-30T13:40:41.378Z,335.08
2019-05-30T13:45:41.387Z,306.5
2019-05-30T13:50:41.336Z,284.35
2019-05-30T13:55:41.380Z,280.25
2019-05-30T14:00:41.342Z,295.54
2019-05-30T14:05:41.415Z,267.12
2019-05-30T14:10:45.461Z,297.93
2019-05-30T14:15:41.374Z,276.73
2019-05-30T14:20:41.328Z,294.75
2019-05-30T14:25:41.334Z,321.08
2019-05-30T14:30:41.327Z,352.97
2019-05-30T14:35:41.353Z,297.13
2019-05-30T14:40:41.298Z,291.11
2019-05-30T14:45:41.299Z,282.89
2019-05-30T14:50:41.350Z,329.08
2019-05-30T14:55:41.319Z,355.63
2019-05-30T15:00:41.301Z,317.69
2019-05-30T15:05:41.331Z,256.35
2019-05-30T15:10:41.283Z,269.73
2019-05-30T15:15:41.265Z,296.86
2019-05-30T15:20:41.329Z,299.55
2019-05-30T15:25:41.305Z,234.52
2019-05-30T15:30:41.263Z,265.4
2019-05-30T15:35:41.322Z,251.28
2019-05-30T15:40:41.328Z,267.77
2019-05-30T15:45:41.245Z,269.95
2019-05-30T15:50:41.269Z,257.35
2019-05-30T15:55:41.272Z,220.01
2019-05-30T16:00:41.280Z,253.98
2019-05-30T16:05:42.226Z,245.5
2019-05-30T16:10:47.567Z,254.18
2019-05-30T16:15:47.549Z,260.39
2019-05-30T16:20:47.544Z,274.44
2019-05-30T16:25:47.552Z,254.77
2019-05-30T16:30:47.565Z,220.74
2019-05-30T16:35:47.600Z,213.75
2019-05-30T16:40:47.547Z,198.6
2019-05-30T16:45:47.534Z,193.94
2019-05-30T16:50:47.519Z,200.4
2019-05-30T16:55:47.553Z,202.37
2019-05-30T17:00:47.509Z,190.03
2019-05-30T17:05:47.520Z,178.1
2019-05-30T17:10:47.524Z,182.94
2019-05-30T17:15:47.506Z,172.26
2019-05-30T17:20:47.527Z,154.38
2019-05-30T17:25:47.552Z,158.16
2019-05-30T17:30:47.560Z,140.93
2019-05-30T17:35:47.548Z,159.51
2019-05-30T17:40:51.579Z,130.63
2019-05-30T17:45:47.543Z,152.84
2019-05-30T17:50:47.505Z,142.6
2019-05-30T17:55:47.470Z,126.12
2019-05-30T18:00:47.534Z,129.43
2019-05-30T18:05:47.499Z,137.58
2019-05-30T18:10:55.888Z,138.6
2019-05-30T18:15:47.449Z,137.02
2019-05-30T18:20:50.713Z,140.34
2019-05-30T18:25:47.492Z,150.38
2019-05-30T18:30:47.472Z,151.87
2019-05-30T18:35:47.449Z,139.18
2019-05-30T18:40:47.441Z,134.72
2019-05-30T18:45:47.470Z,141.16
2019-05-30T18:50:47.465Z,151.74
2019-05-30T18:55:47.416Z,152.01
2019-05-30T19:00:47.415Z,138.15
2019-05-30T19:05:50.534Z,125.19
2019-05-30T19:10:47.467Z,129.03
2019-05-30T19:15:47.398Z,137.58
2019-05-30T19:20:47.445Z,137.92
2019-05-30T19:25:48.510Z,138.72
2019-05-30T19:30:47.539Z,139.41
2019-05-30T19:35:49.602Z,123.8
2019-05-30T19:40:47.449Z,142.24
2019-05-30T19:45:47.384Z,130.53
2019-05-30T19:50:47.390Z,137.47
2019-05-30T19:55:47.421Z,133.75
2019-05-30T20:01:00.435Z,134.72
2019-05-30T20:05:47.418Z,134.72
2019-05-30T20:10:47.372Z,124.35
2019-05-30T20:15:47.369Z,119.58
2019-05-30T20:20:59.331Z,132.28
2019-05-30T20:25:48.187Z,139.18
2019-05-30T20:30:47.345Z,136.69
2019-05-30T20:35:47.351Z,134.07
2019-05-30T20:40:47.403Z,136.02
2019-05-30T20:45:50.882Z,138.72
2019-05-30T20:50:47.472Z,136.13
2019-05-30T20:55:47.357Z,137.47
2019-05-30T21:00:47.917Z,141.4
2019-05-30T21:05:48.152Z,135.69
2019-05-30T21:10:47.483Z,142
2019-05-30T21:15:47.871Z,147.48
2019-05-30T21:20:48.261Z,146.58
2019-05-30T21:25:47.594Z,145.19
2019-05-30T21:30:47.604Z,146.96
2019-05-30T21:35:48.272Z,147.61
2019-05-30T21:40:48.704Z,141.28
2019-05-30T21:45:47.372Z,141.76
2019-05-30T21:50:50.187Z,138.49
2019-05-30T21:55:48.095Z,144.56
2019-05-30T22:00:48.657Z,144.19
2019-05-30T22:05:51.733Z,143.7
2019-05-30T22:10:47.698Z,147.09
2019-05-30T22:15:48.279Z,141.64
2019-05-30T22:20:48.033Z,146.83
2019-05-30T22:25:48.410Z,151.87
2019-05-30T22:30:48.553Z,153.68
2019-05-30T22:35:47.278Z,152.29
2019-05-30T22:40:47.989Z,143.7
2019-05-30T22:45:48.251Z,143.7
2019-05-30T22:50:47.266Z,135.91
2019-05-30T22:55:49.696Z,116.43
2019-05-30T23:00:48.143Z,130.03
2019-05-30T23:05:47.410Z,135.48
2019-05-30T23:10:47.729Z,135.69
2019-05-30T23:15:48.209Z,134.72
2019-05-30T23:25:49.216Z,142.48
2019-05-30T23:30:47.873Z,145.94
2019-05-30T23:35:48.250Z,143.94
2019-05-30T23:40:48.904Z,145.69
2019-05-30T23:45:49.225Z,151.74
2019-05-30T23:50:47.868Z,140.81
2019-05-30T23:55:47.930Z,143.33
